createdAt,value
2022-11-04T00:00:00.622Z,10.06
2022-11-04T00:01:00.745Z,10.06
2022-11-04T00:02:00.699Z,10.08
2022-11-04T00:03:00.601Z,10.06
2022-11-04T00:04:00.576Z,10.06
2022-11-04T00:05:00.573Z,10.03
2022-11-04T00:06:00.552Z,10.03
2022-11-04T00:07:00.550Z,10.03
2022-11-04T00:08:00.530Z,10.01
2022-11-04T00:09:00.523Z,10.02
2022-11-04T00:10:00.512Z,10.05
2022-11-04T00:11:00.496Z,10.01
2022-11-04T00:12:00.508Z,10.02
2022-11-04T00:13:00.480Z,9.99
2022-11-04T00:14:00.471Z,9.99
2022-11-04T00:15:00.455Z,9.99
2022-11-04T00:16:00.443Z,10.01
2022-11-04T00:17:00.428Z,10.05
2022-11-04T00:18:00.420Z,10.05
2022-11-04T00:19:00.409Z,10.05
2022-11-04T00:20:00.401Z,10.08
2022-11-04T00:21:00.385Z,10.06
2022-11-04T00:22:00.381Z,10.08
2022-11-04T00:23:00.362Z,10.08
2022-11-04T00:24:00.350Z,10.10
2022-11-04T00:25:00.342Z,10.09
2022-11-04T00:26:00.333Z,10.10
2022-11-04T00:27:00.316Z,10.10
2022-11-04T00:28:00.389Z,10.12
2022-11-04T00:29:00.549Z,10.10
2022-11-04T00:30:00.284Z,10.12
2022-11-04T00:31:00.279Z,10.12
2022-11-04T00:32:00.263Z,10.12
2022-11-04T00:33:00.250Z,10.12
2022-11-04T00:34:00.241Z,10.12
2022-11-04T00:35:00.228Z,10.14
2022-11-04T00:36:00.216Z,10.14
2022-11-04T00:37:00.206Z,10.12
2022-11-04T00:38:00.195Z,10.12
2022-11-04T00:39:00.181Z,10.12
2022-11-04T00:40:00.174Z,10.09
2022-11-04T00:41:00.158Z,10.08
2022-11-04T00:42:00.149Z,10.08
2022-11-04T00:43:00.144Z,10.06
2022-11-04T00:44:00.168Z,10.05
2022-11-04T00:45:00.138Z,10.06
2022-11-04T00:46:00.106Z,10.05
2022-11-04T00:47:02.092Z,10.03
2022-11-04T00:48:00.088Z,10.03
2022-11-04T00:49:00.069Z,10.02
2022-11-04T00:50:00.060Z,9.99
2022-11-04T00:51:00.164Z,9.98
2022-11-04T00:52:00.038Z,10.01
2022-11-04T00:53:00.034Z,9.99
2022-11-04T00:54:00.016Z,9.99
2022-11-04T00:55:00.001Z,9.98
2022-11-04T00:55:59.994Z,9.99
2022-11-04T00:56:59.986Z,9.98
2022-11-04T00:57:59.972Z,9.99
2022-11-04T00:58:59.959Z,9.98
2022-11-04T00:59:59.969Z,9.98
2022-11-04T01:01:00.022Z,9.96
2022-11-04T01:02:00.125Z,9.94
2022-11-04T01:02:59.914Z,9.94
2022-11-04T01:03:59.901Z,9.91
2022-11-04T01:04:59.889Z,9.94
2022-11-04T01:05:59.874Z,9.94
2022-11-04T01:06:59.870Z,9.94
2022-11-04T01:07:59.851Z,9.94
2022-11-04T01:08:59.840Z,9.93
2022-11-04T01:09:59.829Z,9.93
2022-11-04T01:10:59.816Z,9.93
2022-11-04T01:11:59.805Z,9.91
2022-11-04T01:12:59.795Z,9.88
2022-11-04T01:13:59.784Z,9.87
2022-11-04T01:14:59.776Z,9.84
2022-11-04T01:15:59.782Z,9.81
2022-11-04T01:16:59.758Z,9.81
2022-11-04T01:17:59.740Z,9.83
2022-11-04T01:18:59.727Z,9.77
2022-11-04T01:19:59.724Z,9.77
2022-11-04T01:20:59.705Z,9.77
2022-11-04T01:21:59.692Z,9.74
2022-11-04T01:22:59.691Z,9.74
2022-11-04T01:23:59.671Z,9.74
2022-11-04T01:24:59.678Z,9.74
2022-11-04T01:25:59.648Z,9.72
2022-11-04T01:26:59.636Z,9.72
2022-11-04T01:27:59.626Z,9.72
2022-11-04T01:28:59.615Z,9.72
2022-11-04T01:29:59.603Z,9.72
2022-11-04T01:30:59.594Z,9.69
2022-11-04T01:31:59.604Z,9.69
2022-11-04T01:32:59.570Z,9.69
2022-11-04T01:33:59.558Z,9.69
2022-11-04T01:34:59.546Z,9.69
2022-11-04T01:35:59.539Z,9.69
2022-11-04T01:36:59.525Z,9.69
2022-11-04T01:37:59.512Z,9.68
2022-11-04T01:38:59.503Z,9.65
2022-11-04T01:39:59.489Z,9.64
2022-11-04T01:40:59.478Z,9.64
2022-11-04T01:41:59.519Z,9.62
2022-11-04T01:42:59.461Z,9.64
2022-11-04T01:43:59.447Z,9.61
2022-11-04T01:44:59.438Z,9.58
2022-11-04T01:45:59.424Z,9.62
2022-11-04T01:46:59.424Z,9.62
2022-11-04T01:47:59.423Z,9.59
2022-11-04T01:48:59.388Z,9.59
2022-11-04T01:49:59.378Z,9.59
2022-11-04T01:50:59.370Z,9.61
2022-11-04T01:51:59.361Z,9.61
2022-11-04T01:52:59.345Z,9.59
2022-11-04T01:53:59.332Z,9.62
2022-11-04T01:54:59.321Z,9.59
2022-11-04T01:55:59.313Z,9.62
2022-11-04T01:56:59.298Z,9.61
2022-11-04T01:57:59.293Z,9.61
2022-11-04T01:58:59.275Z,9.62
2022-11-04T01:59:59.264Z,9.59
2022-11-04T02:00:59.323Z,9.59
2022-11-04T02:01:59.408Z,9.59
2022-11-04T02:02:59.237Z,9.58
2022-11-04T02:03:59.245Z,9.59
2022-11-04T02:04:59.209Z,9.58
2022-11-04T02:05:59.205Z,9.58
2022-11-04T02:06:59.185Z,9.56
2022-11-04T02:07:59.177Z,9.54
2022-11-04T02:08:59.217Z,9.54
2022-11-04T02:09:59.166Z,9.54
2022-11-04T02:10:59.148Z,9.54
2022-11-04T02:11:59.131Z,9.53
2022-11-04T02:12:59.117Z,9.50
2022-11-04T02:13:59.107Z,9.51
2022-11-04T02:14:59.099Z,9.53
2022-11-04T02:15:59.083Z,9.51
2022-11-04T02:16:59.072Z,9.49
2022-11-04T02:17:59.064Z,9.47
2022-11-04T02:18:59.061Z,9.47
2022-11-04T02:19:59.060Z,9.49
2022-11-04T02:20:59.033Z,9.50
2022-11-04T02:21:59.016Z,9.53
2022-11-04T02:22:59.004Z,9.53
2022-11-04T02:23:59.000Z,9.54
2022-11-04T02:24:58.988Z,9.54
2022-11-04T02:25:58.974Z,9.56
2022-11-04T02:26:58.976Z,9.54
2022-11-04T02:27:58.956Z,9.56
2022-11-04T02:28:58.938Z,9.56
2022-11-04T02:29:58.933Z,9.58
2022-11-04T02:30:58.913Z,9.56
2022-11-04T02:31:58.905Z,9.56
2022-11-04T02:32:58.891Z,9.54
2022-11-04T02:33:58.879Z,9.56
2022-11-04T02:34:58.868Z,9.54
2022-11-04T02:35:58.884Z,9.53
2022-11-04T02:36:58.844Z,9.51
2022-11-04T02:37:58.848Z,9.51
2022-11-04T02:38:58.824Z,9.51
2022-11-04T02:39:58.811Z,9.51
2022-11-04T02:40:58.806Z,9.53
2022-11-04T02:41:58.792Z,9.53
2022-11-04T02:42:58.777Z,9.53
2022-11-04T02:43:58.766Z,9.51
2022-11-04T02:44:58.756Z,9.49
2022-11-04T02:45:58.743Z,9.49
2022-11-04T02:46:58.738Z,9.49
2022-11-04T02:47:58.720Z,9.49
2022-11-04T02:48:58.713Z,9.47
2022-11-04T02:49:58.699Z,9.49
2022-11-04T02:50:58.685Z,9.50
2022-11-04T02:51:58.699Z,9.49
2022-11-04T02:52:58.669Z,9.51
2022-11-04T02:53:58.652Z,9.51
2022-11-04T02:54:58.644Z,9.53
2022-11-04T02:55:58.634Z,9.53
2022-11-04T02:56:58.620Z,9.53
2022-11-04T02:57:58.612Z,9.53
2022-11-04T02:58:58.597Z,9.53
2022-11-04T02:59:58.589Z,9.54
2022-11-04T03:00:58.648Z,9.51
2022-11-04T03:01:58.748Z,9.53
2022-11-04T03:02:58.556Z,9.53
2022-11-04T03:03:58.541Z,9.56
2022-11-04T03:04:58.535Z,9.56
2022-11-04T03:05:58.517Z,9.56
2022-11-04T03:06:58.620Z,9.53
2022-11-04T03:07:58.517Z,9.56
2022-11-04T03:08:58.483Z,9.54
2022-11-04T03:09:58.477Z,9.54
2022-11-04T03:10:58.461Z,9.53
2022-11-04T03:11:58.449Z,9.53
2022-11-04T03:12:58.444Z,9.54
2022-11-04T03:13:58.435Z,9.56
2022-11-04T03:14:58.423Z,9.54
2022-11-04T03:15:58.405Z,9.54
2022-11-04T03:16:58.396Z,9.53
2022-11-04T03:17:58.381Z,9.51
2022-11-04T03:18:58.372Z,9.50
2022-11-04T03:19:58.368Z,9.50
2022-11-04T03:20:58.350Z,9.51
2022-11-04T03:21:58.337Z,9.50
2022-11-04T03:22:58.325Z,9.51
2022-11-04T03:23:58.337Z,9.51
2022-11-04T03:24:58.301Z,9.51
2022-11-04T03:25:58.295Z,9.49
2022-11-04T03:26:58.277Z,9.49
2022-11-04T03:27:58.266Z,9.50
2022-11-04T03:28:58.260Z,9.50
2022-11-04T03:29:58.244Z,9.50
2022-11-04T03:30:58.261Z,9.50
2022-11-04T03:31:58.219Z,9.50
2022-11-04T03:32:58.211Z,9.49
2022-11-04T03:33:58.204Z,9.49
2022-11-04T03:34:58.188Z,9.47
2022-11-04T03:35:58.177Z,9.46
2022-11-04T03:36:58.201Z,9.47
2022-11-04T03:37:58.151Z,9.49
2022-11-04T03:38:58.182Z,9.51
2022-11-04T03:39:58.171Z,9.51
2022-11-04T03:40:58.117Z,9.53
2022-11-04T03:41:58.115Z,9.53
2022-11-04T03:42:58.097Z,9.51
2022-11-04T03:43:58.082Z,9.53
2022-11-04T03:44:58.077Z,9.53
2022-11-04T03:45:58.058Z,9.51
2022-11-04T03:46:58.053Z,9.50
2022-11-04T03:47:58.037Z,9.51
2022-11-04T03:48:58.026Z,9.49
2022-11-04T03:49:58.012Z,9.47
2022-11-04T03:50:58.001Z,9.46
2022-11-04T03:51:57.993Z,9.43
2022-11-04T03:52:57.986Z,9.44
2022-11-04T03:53:57.967Z,9.46
2022-11-04T03:54:57.960Z,9.43
2022-11-04T03:55:57.968Z,9.43
2022-11-04T03:56:57.933Z,9.43
2022-11-04T03:57:57.923Z,9.41
2022-11-04T03:58:57.917Z,9.41
2022-11-04T03:59:57.905Z,9.44
2022-11-04T04:00:57.931Z,9.44
2022-11-04T04:01:58.035Z,9.44
2022-11-04T04:02:57.868Z,9.46
2022-11-04T04:03:57.856Z,9.46
2022-11-04T04:04:57.839Z,9.46
2022-11-04T04:05:57.829Z,9.49
2022-11-04T04:06:57.823Z,9.49
2022-11-04T04:07:57.807Z,9.50
2022-11-04T04:08:57.792Z,9.50
2022-11-04T04:09:57.783Z,9.50
2022-11-04T04:10:57.768Z,9.49
2022-11-04T04:11:57.786Z,9.50
2022-11-04T04:12:57.745Z,9.50
2022-11-04T04:13:57.741Z,9.50
2022-11-04T04:14:57.721Z,9.51
2022-11-04T04:15:57.715Z,9.50
2022-11-04T04:16:57.739Z,9.51
2022-11-04T04:17:57.687Z,9.51
2022-11-04T04:18:58.768Z,9.51
2022-11-04T04:19:57.667Z,9.47
2022-11-04T04:20:57.660Z,9.49
2022-11-04T04:21:57.642Z,9.47
2022-11-04T04:22:57.630Z,9.47
2022-11-04T04:23:57.618Z,9.49
2022-11-04T04:24:57.611Z,9.46
2022-11-04T04:25:57.602Z,9.46
2022-11-04T04:26:57.587Z,9.47
2022-11-04T04:27:57.595Z,9.47
2022-11-04T04:28:57.559Z,9.49
2022-11-04T04:29:57.550Z,9.50
2022-11-04T04:31:00.203Z,9.50
2022-11-04T04:31:57.532Z,9.49
2022-11-04T04:32:57.514Z,9.49
2022-11-04T04:33:57.508Z,9.50
2022-11-04T04:34:57.492Z,9.50
2022-11-04T04:35:57.481Z,9.50
2022-11-04T04:36:57.478Z,9.53
2022-11-04T04:37:57.457Z,9.54
2022-11-04T04:38:57.449Z,9.54
2022-11-04T04:39:57.434Z,9.56
2022-11-04T04:41:57.413Z,9.56
2022-11-04T04:42:57.402Z,9.56
2022-11-04T04:43:57.410Z,9.56
2022-11-04T04:44:57.376Z,9.58
2022-11-04T04:45:57.369Z,9.59
2022-11-04T04:46:57.370Z,9.61
2022-11-04T04:47:57.351Z,9.62
2022-11-04T04:48:57.332Z,9.64
2022-11-04T04:49:57.323Z,9.64
2022-11-04T04:50:57.310Z,9.64
2022-11-04T04:51:57.304Z,9.65
2022-11-04T04:52:57.287Z,9.66
2022-11-04T04:53:57.277Z,9.66
2022-11-04T04:54:57.268Z,9.65
2022-11-04T04:55:57.249Z,9.64
2022-11-04T04:56:57.241Z,9.65
2022-11-04T04:57:57.228Z,9.65
2022-11-04T04:58:57.215Z,9.66
2022-11-04T04:59:57.225Z,9.68
2022-11-04T05:00:57.287Z,9.66
2022-11-04T05:01:57.267Z,9.65
2022-11-04T05:02:57.179Z,9.66
2022-11-04T05:03:57.166Z,9.66
2022-11-04T05:04:57.146Z,9.68
2022-11-04T05:05:58.822Z,9.66
2022-11-04T05:06:57.126Z,9.68
2022-11-04T05:07:57.114Z,9.68
2022-11-04T05:08:57.105Z,9.68
2022-11-04T05:09:57.096Z,9.68
2022-11-04T05:10:57.079Z,9.69
2022-11-04T05:11:57.070Z,9.71
2022-11-04T05:12:57.057Z,9.66
2022-11-04T05:13:57.043Z,9.66
2022-11-04T05:14:57.032Z,9.68
2022-11-04T05:15:57.048Z,9.69
2022-11-04T05:16:57.011Z,9.71
2022-11-04T05:17:57.000Z,9.72
2022-11-04T05:18:56.990Z,9.72
2022-11-04T05:19:56.976Z,9.72
2022-11-04T05:20:56.963Z,9.72
2022-11-04T05:21:56.957Z,9.72
2022-11-04T05:22:56.942Z,9.74
2022-11-04T05:23:56.930Z,9.76
2022-11-04T05:24:56.919Z,9.76
2022-11-04T05:25:56.912Z,9.77
2022-11-04T05:26:56.895Z,9.76
2022-11-04T05:27:56.890Z,9.77
2022-11-04T05:28:56.873Z,9.77
2022-11-04T05:29:56.867Z,9.77
2022-11-04T05:30:56.855Z,9.81
2022-11-04T05:31:56.872Z,9.83
2022-11-04T05:33:00.019Z,9.83
2022-11-04T05:33:56.817Z,9.84
2022-11-04T05:34:56.811Z,9.84
2022-11-04T05:35:56.791Z,9.87
2022-11-04T05:36:56.786Z,9.88
2022-11-04T05:37:56.769Z,9.91
2022-11-04T05:38:56.755Z,9.90
2022-11-04T05:39:56.745Z,9.91
2022-11-04T05:40:56.735Z,9.94
2022-11-04T05:41:56.722Z,9.94
2022-11-04T05:42:56.713Z,9.93
2022-11-04T05:43:56.697Z,9.93
2022-11-04T05:44:56.694Z,9.93
2022-11-04T05:45:56.675Z,9.91
2022-11-04T05:46:56.663Z,9.94
2022-11-04T05:47:56.675Z,9.94
2022-11-04T05:48:56.639Z,9.94
2022-11-04T05:49:58.633Z,9.94
2022-11-04T05:50:56.622Z,9.94
2022-11-04T05:51:56.606Z,9.93
2022-11-04T05:52:58.597Z,9.93
2022-11-04T05:53:56.584Z,9.91
2022-11-04T05:54:58.570Z,9.93
2022-11-04T05:55:56.563Z,9.93
2022-11-04T05:56:56.547Z,9.93
2022-11-04T05:57:56.538Z,9.94
2022-11-04T05:58:58.525Z,9.96
2022-11-04T05:59:58.512Z,9.98
2022-11-04T06:00:58.501Z,9.98
2022-11-04T06:01:56.821Z,9.98
2022-11-04T06:02:56.545Z,9.96
2022-11-04T06:03:56.491Z,9.98
2022-11-04T06:04:56.456Z,9.98
2022-11-04T06:05:56.446Z,9.96
2022-11-04T06:06:56.432Z,9.96
2022-11-04T06:07:56.427Z,9.94
2022-11-04T06:08:56.411Z,9.94
2022-11-04T06:09:56.409Z,9.94
2022-11-04T06:10:56.387Z,9.96
2022-11-04T06:11:56.374Z,9.96
2022-11-04T06:12:56.377Z,9.98
2022-11-04T06:13:56.354Z,9.98
2022-11-04T06:14:56.347Z,9.98
2022-11-04T06:15:56.328Z,9.99
2022-11-04T06:16:56.327Z,9.99
2022-11-04T06:17:56.310Z,10.01
2022-11-04T06:19:01.589Z,10.01
2022-11-04T06:19:56.286Z,10.02
2022-11-04T06:20:58.274Z,10.02
2022-11-04T06:21:56.260Z,10.03
2022-11-04T06:22:56.256Z,10.03
2022-11-04T06:23:56.237Z,10.02
2022-11-04T06:24:56.226Z,10.03
2022-11-04T06:25:58.219Z,10.05
2022-11-04T06:26:56.207Z,10.03
2022-11-04T06:27:56.194Z,10.05
2022-11-04T06:28:56.193Z,10.06
2022-11-04T06:29:56.176Z,10.05
2022-11-04T06:30:56.159Z,10.05
2022-11-04T06:31:58.151Z,10.05
2022-11-04T06:32:58.137Z,10.06
2022-11-04T06:33:58.134Z,10.06
2022-11-04T06:34:56.135Z,10.06
2022-11-04T06:35:56.106Z,10.08
2022-11-04T06:36:56.090Z,10.08
2022-11-04T06:37:56.076Z,10.08
2022-11-04T06:39:01.401Z,10.09
2022-11-04T06:39:56.064Z,10.08
2022-11-04T06:40:56.114Z,10.06
2022-11-04T06:41:58.013Z,10.08
2022-11-04T06:42:56.025Z,10.09
2022-11-04T06:43:58.013Z,10.09
2022-11-04T06:44:56.003Z,10.10
2022-11-04T06:45:55.989Z,10.10
2022-11-04T06:46:55.975Z,10.12
2022-11-04T06:47:55.964Z,10.12
2022-11-04T06:48:57.951Z,10.14
2022-11-04T06:49:55.943Z,10.16
2022-11-04T06:50:55.959Z,10.18
2022-11-04T06:51:55.924Z,10.17
2022-11-04T06:52:55.907Z,10.20
2022-11-04T06:53:55.905Z,10.21
2022-11-04T06:54:55.886Z,10.23
2022-11-04T06:55:55.877Z,10.24
2022-11-04T06:56:55.863Z,10.24
2022-11-04T06:57:55.856Z,10.24
2022-11-04T06:58:55.842Z,10.23
2022-11-04T06:59:55.834Z,10.24
2022-11-04T07:00:55.962Z,10.28
2022-11-04T07:01:55.951Z,10.34
2022-11-04T07:02:55.900Z,10.35
2022-11-04T07:03:55.783Z,10.36
2022-11-04T07:04:55.772Z,10.36
2022-11-04T07:05:55.759Z,10.38
2022-11-04T07:06:55.774Z,10.38
2022-11-04T07:07:55.739Z,10.39
2022-11-04T07:08:55.729Z,10.42
2022-11-04T07:09:55.717Z,10.42
2022-11-04T07:10:55.706Z,10.45
2022-11-04T07:11:55.692Z,10.45
2022-11-04T07:12:55.681Z,10.46
2022-11-04T07:13:55.677Z,10.46
2022-11-04T07:14:55.657Z,10.49
2022-11-04T07:15:55.648Z,10.49
2022-11-04T07:16:55.638Z,10.49
2022-11-04T07:17:55.629Z,10.51
2022-11-04T07:18:55.615Z,10.53
2022-11-04T07:19:55.610Z,10.56
2022-11-04T07:20:55.592Z,10.57
2022-11-04T07:21:55.586Z,10.59
2022-11-04T07:22:55.595Z,10.60
2022-11-04T07:23:55.560Z,10.63
2022-11-04T07:24:55.547Z,10.69
2022-11-04T07:25:55.535Z,10.72
2022-11-04T07:26:55.602Z,10.75
2022-11-04T07:27:58.064Z,10.75
2022-11-04T07:28:55.517Z,10.79
2022-11-04T07:29:55.491Z,10.81
2022-11-04T07:30:55.478Z,10.84
2022-11-04T07:31:55.470Z,10.86
2022-11-04T07:32:55.457Z,10.90
2022-11-04T07:33:55.452Z,10.92
2022-11-04T07:34:55.434Z,10.94
2022-11-04T07:35:57.127Z,10.96
2022-11-04T07:36:55.414Z,10.97
2022-11-04T07:37:55.404Z,11.00
2022-11-04T07:38:55.413Z,11.00
2022-11-04T07:39:55.378Z,11.02
2022-11-04T07:40:55.366Z,11.03
2022-11-04T07:41:59.304Z,11.08
2022-11-04T07:42:55.349Z,11.10
2022-11-04T07:43:55.341Z,11.11
2022-11-04T07:44:55.335Z,11.11
2022-11-04T07:45:55.312Z,11.12
2022-11-04T07:46:55.303Z,11.17
2022-11-04T07:47:55.290Z,11.18
2022-11-04T07:48:55.281Z,11.22
2022-11-04T07:49:55.339Z,11.28
2022-11-04T07:50:55.254Z,11.34
2022-11-04T07:51:55.244Z,11.40
2022-11-04T07:52:55.231Z,11.45
2022-11-04T07:53:55.225Z,11.51
2022-11-04T07:54:55.232Z,11.59
2022-11-04T07:55:55.204Z,11.66
2022-11-04T07:56:55.198Z,11.71
2022-11-04T07:57:55.175Z,11.79
2022-11-04T07:58:55.165Z,11.88
2022-11-04T07:59:55.164Z,11.94
2022-11-04T08:00:55.143Z,11.98
2022-11-04T08:01:55.256Z,12.06
2022-11-04T08:02:55.233Z,12.07
2022-11-04T08:03:55.119Z,12.10
2022-11-04T08:04:55.105Z,12.12
2022-11-04T08:05:55.086Z,12.12
2022-11-04T08:06:55.086Z,12.12
2022-11-04T08:07:55.062Z,12.16
2022-11-04T08:08:55.119Z,12.14
2022-11-04T08:09:55.046Z,12.16
2022-11-04T08:10:55.064Z,12.17
2022-11-04T08:11:55.018Z,12.21
2022-11-04T08:12:55.008Z,12.24
2022-11-04T08:13:55.001Z,12.27
2022-11-04T08:14:54.985Z,12.27
2022-11-04T08:15:54.974Z,12.27
2022-11-04T08:16:54.967Z,12.28
2022-11-04T08:17:54.952Z,12.31
2022-11-04T08:18:54.939Z,12.31
2022-11-04T08:19:54.926Z,12.29
2022-11-04T08:20:55.016Z,12.29
2022-11-04T08:21:54.923Z,12.29
2022-11-04T08:22:54.920Z,12.31
2022-11-04T08:23:54.892Z,12.32
2022-11-04T08:24:54.878Z,12.34
2022-11-04T08:25:54.867Z,12.39
2022-11-04T08:26:54.881Z,12.37
2022-11-04T08:28:00.532Z,12.40
2022-11-04T08:28:54.829Z,12.40
2022-11-04T08:29:54.822Z,12.43
2022-11-04T08:30:54.809Z,12.45
2022-11-04T08:31:54.800Z,12.49
2022-11-04T08:32:54.781Z,12.52
2022-11-04T08:33:54.771Z,12.54
2022-11-04T08:34:54.760Z,12.58
2022-11-04T08:35:54.760Z,12.58
2022-11-04T08:36:54.739Z,12.60
2022-11-04T08:37:54.725Z,12.63
2022-11-04T08:38:54.722Z,12.65
2022-11-04T08:39:54.710Z,12.65
2022-11-04T08:40:59.569Z,12.65
2022-11-04T08:41:54.682Z,12.66
2022-11-04T08:42:54.698Z,12.66
2022-11-04T08:43:54.663Z,12.69
2022-11-04T08:44:54.645Z,12.71
2022-11-04T08:45:54.641Z,12.73
2022-11-04T08:46:54.623Z,12.76
2022-11-04T08:47:54.611Z,12.80
2022-11-04T08:48:54.608Z,12.81
2022-11-04T08:49:54.593Z,12.86
2022-11-04T08:50:54.576Z,12.88
2022-11-04T08:51:54.567Z,12.93
2022-11-04T08:52:54.560Z,12.95
2022-11-04T08:53:54.865Z,12.96
2022-11-04T08:54:57.327Z,12.98
2022-11-04T08:55:54.534Z,13.06
2022-11-04T08:56:54.510Z,13.04
2022-11-04T08:57:54.509Z,12.93
2022-11-04T08:58:54.592Z,12.90
2022-11-04T08:59:54.476Z,13.04
2022-11-04T09:00:54.463Z,13.11
2022-11-04T09:01:54.526Z,13.08
2022-11-04T09:02:54.442Z,13.02
2022-11-04T09:03:54.503Z,12.87
2022-11-04T09:04:54.429Z,12.71
2022-11-04T09:05:54.406Z,12.81
2022-11-04T09:06:54.406Z,12.88
2022-11-04T09:07:54.384Z,12.73
2022-11-04T09:08:54.373Z,12.77
2022-11-04T09:09:54.364Z,12.71
2022-11-04T09:10:54.351Z,12.93
2022-11-04T09:11:54.339Z,13.01
2022-11-04T09:12:54.329Z,13.05
2022-11-04T09:13:54.317Z,13.06
2022-11-04T09:14:54.418Z,13.09
2022-11-04T09:15:54.293Z,13.11
2022-11-04T09:16:54.284Z,13.14
2022-11-04T09:17:54.270Z,13.16
2022-11-04T09:18:54.259Z,13.17
2022-11-04T09:19:54.247Z,13.17
2022-11-04T09:20:54.237Z,13.17
2022-11-04T09:21:54.237Z,13.17
2022-11-04T09:22:54.224Z,13.20
2022-11-04T09:23:54.203Z,13.21
2022-11-04T09:24:54.191Z,13.23
2022-11-04T09:25:54.183Z,13.26
2022-11-04T09:26:54.173Z,13.27
2022-11-04T09:27:54.166Z,13.30
2022-11-04T09:28:54.146Z,13.32
2022-11-04T09:29:54.134Z,13.34
2022-11-04T09:30:54.231Z,13.37
2022-11-04T09:31:54.110Z,13.37
2022-11-04T09:32:54.105Z,13.39
2022-11-04T09:33:54.089Z,13.39
2022-11-04T09:34:54.076Z,13.42
2022-11-04T09:35:54.067Z,13.42
2022-11-04T09:36:54.060Z,13.44
2022-11-04T09:37:54.042Z,13.46
2022-11-04T09:38:54.031Z,13.46
2022-11-04T09:39:54.193Z,13.53
2022-11-04T09:40:54.007Z,13.57
2022-11-04T09:41:53.997Z,13.60
2022-11-04T09:42:53.992Z,13.62
2022-11-04T09:43:53.972Z,13.64
2022-11-04T09:45:20.008Z,13.70
2022-11-04T09:45:53.951Z,13.70
2022-11-04T09:46:54.227Z,13.70
2022-11-04T09:47:53.931Z,13.71
2022-11-04T09:48:53.918Z,13.62
2022-11-04T09:49:53.902Z,13.30
2022-11-04T09:50:53.896Z,13.16
2022-11-04T09:51:55.715Z,13.13
2022-11-04T09:52:53.869Z,13.17
2022-11-04T09:53:53.869Z,13.21
2022-11-04T09:54:53.857Z,13.26
2022-11-04T09:55:53.834Z,13.30
2022-11-04T09:56:53.830Z,13.32
2022-11-04T09:57:53.878Z,13.35
2022-11-04T09:58:53.801Z,13.41
2022-11-04T09:59:53.789Z,13.44
2022-11-04T10:00:53.816Z,13.48
2022-11-04T10:01:53.933Z,13.53
2022-11-04T10:02:53.864Z,13.60
2022-11-04T10:03:53.746Z,13.66
2022-11-04T10:04:53.733Z,13.66
2022-11-04T10:05:53.719Z,13.71
2022-11-04T10:06:53.712Z,13.70
2022-11-04T10:07:53.723Z,13.71
2022-11-04T10:08:53.686Z,13.71
2022-11-04T10:09:53.674Z,13.72
2022-11-04T10:10:53.668Z,13.64
2022-11-04T10:11:53.653Z,13.62
2022-11-04T10:12:53.638Z,13.56
2022-11-04T10:13:53.633Z,13.53
2022-11-04T10:14:53.620Z,13.53
2022-11-04T10:15:53.608Z,13.53
2022-11-04T10:16:53.594Z,13.57
2022-11-04T10:17:53.589Z,13.59
2022-11-04T10:18:53.679Z,13.62
2022-11-04T10:19:53.566Z,13.64
2022-11-04T10:20:53.552Z,13.66
2022-11-04T10:21:53.537Z,13.64
2022-11-04T10:22:53.525Z,13.66
2022-11-04T10:23:53.515Z,13.66
2022-11-04T10:24:53.506Z,13.70
2022-11-04T10:25:53.491Z,13.67
2022-11-04T10:26:59.036Z,13.70
2022-11-04T10:27:53.469Z,13.71
2022-11-04T10:28:53.456Z,13.74
2022-11-04T10:29:53.443Z,13.77
2022-11-04T10:30:53.442Z,13.79
2022-11-04T10:31:53.422Z,13.82
2022-11-04T10:32:53.415Z,13.85
2022-11-04T10:33:53.402Z,13.87
2022-11-04T10:34:53.601Z,13.89
2022-11-04T10:35:53.379Z,13.89
2022-11-04T10:36:53.364Z,13.92
2022-11-04T10:37:53.364Z,13.90
2022-11-04T10:38:53.342Z,13.90
2022-11-04T10:39:53.330Z,13.87
2022-11-04T10:40:53.319Z,13.82
2022-11-04T10:41:53.306Z,13.81
2022-11-04T10:42:53.295Z,13.81
2022-11-04T10:43:53.284Z,13.85
2022-11-04T10:44:53.269Z,13.84
2022-11-04T10:45:53.270Z,13.87
2022-11-04T10:46:53.253Z,13.85
2022-11-04T10:47:53.239Z,13.85
2022-11-04T10:48:53.226Z,13.87
2022-11-04T10:50:22.059Z,13.85
2022-11-04T10:50:53.315Z,13.84
2022-11-04T10:51:53.190Z,13.85
2022-11-04T10:52:53.187Z,13.84
2022-11-04T10:53:53.172Z,13.82
2022-11-04T10:54:53.362Z,13.81
2022-11-04T10:55:53.145Z,13.82
2022-11-04T10:56:53.248Z,13.82
2022-11-04T10:57:53.132Z,13.77
2022-11-04T10:58:53.112Z,13.72
2022-11-04T10:59:53.101Z,13.72
2022-11-04T11:00:53.182Z,13.71
2022-11-04T11:01:53.358Z,13.66
2022-11-04T11:02:53.075Z,13.59
2022-11-04T11:03:53.055Z,13.57
2022-11-04T11:04:53.046Z,13.59
2022-11-04T11:05:53.037Z,13.60
2022-11-04T11:06:53.050Z,13.63
2022-11-04T11:07:53.008Z,13.66
2022-11-04T11:08:52.996Z,13.63
2022-11-04T11:09:54.366Z,13.63
2022-11-04T11:10:52.973Z,13.64
2022-11-04T11:11:52.963Z,13.63
2022-11-04T11:12:52.957Z,13.64
2022-11-04T11:13:53.061Z,13.70
2022-11-04T11:14:52.931Z,13.71
2022-11-04T11:15:52.915Z,13.74
2022-11-04T11:16:52.910Z,13.78
2022-11-04T11:17:52.893Z,13.78
2022-11-04T11:18:52.884Z,13.77
2022-11-04T11:19:52.871Z,13.78
2022-11-04T11:20:52.859Z,13.75
2022-11-04T11:21:52.855Z,13.66
2022-11-04T11:22:52.864Z,13.63
2022-11-04T11:23:52.830Z,13.54
2022-11-04T11:24:52.812Z,13.45
2022-11-04T11:25:52.809Z,13.41
2022-11-04T11:26:52.791Z,13.37
2022-11-04T11:27:52.786Z,13.30
2022-11-04T11:28:58.406Z,13.26
2022-11-04T11:29:52.758Z,13.26
2022-11-04T11:30:52.749Z,13.27
2022-11-04T11:31:52.737Z,13.34
2022-11-04T11:32:52.721Z,13.35
2022-11-04T11:33:52.709Z,13.38
2022-11-04T11:34:52.697Z,13.38
2022-11-04T11:35:52.686Z,13.39
2022-11-04T11:36:52.701Z,13.42
2022-11-04T11:37:52.666Z,13.45
2022-11-04T11:38:52.651Z,13.44
2022-11-04T11:39:52.666Z,13.39
2022-11-04T11:41:22.901Z,13.38
2022-11-04T11:41:53.455Z,13.41
2022-11-04T11:42:52.608Z,13.41
2022-11-04T11:43:52.597Z,13.42
2022-11-04T11:44:52.588Z,13.42
2022-11-04T11:45:52.680Z,13.44
2022-11-04T11:46:52.560Z,13.45
2022-11-04T11:47:52.549Z,13.46
2022-11-04T11:48:52.536Z,13.50
2022-11-04T11:49:52.533Z,13.52
2022-11-04T11:50:52.514Z,13.52
2022-11-04T11:51:52.513Z,13.50
2022-11-04T11:52:52.498Z,13.52
2022-11-04T11:53:52.488Z,13.57
2022-11-04T11:54:52.474Z,13.60
2022-11-04T11:55:52.494Z,13.60
2022-11-04T11:57:12.676Z,13.64
2022-11-04T12:00:59.129Z,13.71
2022-11-04T12:01:52.575Z,13.74
2022-11-04T12:02:52.581Z,13.75
2022-11-04T12:09:52.302Z,13.70
2022-11-04T12:10:52.775Z,13.64
2022-11-04T12:11:52.361Z,13.57
2022-11-04T12:12:52.273Z,13.56
2022-11-04T12:13:52.263Z,13.54
2022-11-04T12:14:52.243Z,13.54
2022-11-04T12:15:52.237Z,13.52
2022-11-04T12:16:52.221Z,13.53
2022-11-04T12:17:52.211Z,13.50
2022-11-04T12:18:52.199Z,13.46
2022-11-04T12:19:52.197Z,13.44
2022-11-04T12:20:52.175Z,13.38
2022-11-04T12:21:52.173Z,13.37
2022-11-04T12:22:52.156Z,13.37
2022-11-04T12:23:52.154Z,13.41
2022-11-04T12:24:52.131Z,13.41
2022-11-04T12:25:52.122Z,13.34
2022-11-04T12:26:52.109Z,13.32
2022-11-04T12:27:52.127Z,13.32
2022-11-04T12:28:52.094Z,13.32
2022-11-04T12:29:52.073Z,13.34
2022-11-04T12:30:52.071Z,13.30
2022-11-04T12:31:52.051Z,13.30
2022-11-04T12:32:52.042Z,13.26
2022-11-04T12:33:52.036Z,13.24
2022-11-04T12:34:52.017Z,13.26
2022-11-04T12:35:52.011Z,13.29
2022-11-04T12:36:51.995Z,13.32
2022-11-04T12:37:51.992Z,13.34
2022-11-04T12:38:51.975Z,13.34
2022-11-04T12:39:52.021Z,13.37
2022-11-04T12:41:18.684Z,13.42
2022-11-04T12:42:19.659Z,13.41
2022-11-04T12:42:51.927Z,13.41
2022-11-04T12:43:51.939Z,13.38
2022-11-04T12:44:51.908Z,13.42
2022-11-04T12:45:51.895Z,13.42
2022-11-04T12:46:51.882Z,13.39
2022-11-04T12:47:51.873Z,13.35
2022-11-04T12:48:56.841Z,13.29
2022-11-04T12:49:51.859Z,13.24
2022-11-04T12:50:51.837Z,13.23
2022-11-04T12:51:51.830Z,13.20
2022-11-04T12:52:51.815Z,13.20
2022-11-04T12:53:51.802Z,13.19
2022-11-04T12:54:51.800Z,13.17
2022-11-04T12:55:51.785Z,13.14
2022-11-04T12:56:51.770Z,13.16
2022-11-04T12:57:51.763Z,13.16
2022-11-04T12:58:51.758Z,13.17
2022-11-04T12:59:51.777Z,13.19
2022-11-04T13:00:51.942Z,13.20
2022-11-04T13:01:51.835Z,13.17
2022-11-04T13:02:51.725Z,13.20
2022-11-04T13:03:51.701Z,13.20
2022-11-04T13:04:51.701Z,13.23
2022-11-04T13:05:51.678Z,13.24
2022-11-04T13:06:51.681Z,13.26
2022-11-04T13:07:51.657Z,13.27
2022-11-04T13:08:51.645Z,13.27
2022-11-04T13:09:51.637Z,13.27
2022-11-04T13:10:51.613Z,13.27
2022-11-04T13:11:51.603Z,13.29
2022-11-04T13:12:51.588Z,13.27